sensor_id;sensor_type;location;lat;lon;timestamp;P1;durP1;ratioP1;P2;durP2;ratioP2
84729;SDS011;74950;56.832;41.398;2024-01-10T00:02:05;4.32;;;3.58;;
84729;SDS011;74950;56.832;41.398;2024-01-10T00:04:31;10.70;;;7.40;;
84729;SDS011;74950;56.832;41.398;2024-01-10T00:06:57;14.15;;;10.43;;
84729;SDS011;74950;56.832;41.398;2024-01-10T00:09:42;10.32;;;9.27;;
84729;SDS011;74950;56.832;41.398;2024-01-10T00:12:08;7.25;;;5.68;;
84729;SDS011;74950;56.832;41.398;2024-01-10T00:14:34;10.50;;;7.20;;
84729;SDS011;74950;56.832;41.398;2024-01-10T00:17:01;14.77;;;11.15;;
84729;SDS011;74950;56.832;41.398;2024-01-10T00:19:27;14.65;;;8.52;;
84729;SDS011;74950;56.832;41.398;2024-01-10T00:21:53;15.35;;;12.38;;
84729;SDS011;74950;56.832;41.398;2024-01-10T00:24:19;8.38;;;5.43;;
84729;SDS011;74950;56.832;41.398;2024-01-10T00:26:45;8.48;;;7.03;;
84729;SDS011;74950;56.832;41.398;2024-01-10T00:29:11;6.50;;;5.72;;
84729;SDS011;74950;56.832;41.398;2024-01-10T00:31:38;8.70;;;7.40;;
84729;SDS011;74950;56.832;41.398;2024-01-10T00:34:04;6.88;;;5.22;;
84729;SDS011;74950;56.832;41.398;2024-01-10T00:36:49;14.13;;;10.15;;
84729;SDS011;74950;56.832;41.398;2024-01-10T00:39:15;11.82;;;8.48;;
84729;SDS011;74950;56.832;41.398;2024-01-10T00:41:41;14.40;;;11.18;;
84729;SDS011;74950;56.832;41.398;2024-01-10T00:44:07;6.65;;;4.20;;
84729;SDS011;74950;56.832;41.398;2024-01-10T00:46:33;6.97;;;4.00;;
84729;SDS011;74950;56.832;41.398;2024-01-10T00:49:00;14.95;;;13.32;;
84729;SDS011;74950;56.832;41.398;2024-01-10T00:51:26;5.20;;;4.68;;
84729;SDS011;74950;56.832;41.398;2024-01-10T00:54:10;6.35;;;4.40;;
84729;SDS011;74950;56.832;41.398;2024-01-10T00:56:37;7.93;;;4.40;;
84729;SDS011;74950;56.832;41.398;2024-01-10T00:59:03;5.10;;;2.83;;
84729;SDS011;74950;56.832;41.398;2024-01-10T01:01:29;9.45;;;3.97;;
84729;SDS011;74950;56.832;41.398;2024-01-10T01:03:55;15.07;;;9.73;;
84729;SDS011;74950;56.832;41.398;2024-01-10T01:06:21;13.63;;;7.97;;
84729;SDS011;74950;56.832;41.398;2024-01-10T01:08:47;7.47;;;5.65;;
84729;SDS011;74950;56.832;41.398;2024-01-10T01:11:13;3.25;;;1.60;;
84729;SDS011;74950;56.832;41.398;2024-01-10T01:13:40;12.15;;;8.45;;
84729;SDS011;74950;56.832;41.398;2024-01-10T01:16:06;14.13;;;8.68;;
84729;SDS011;74950;56.832;41.398;2024-01-10T01:18:32;9.82;;;4.78;;
84729;SDS011;74950;56.832;41.398;2024-01-10T01:20:58;6.57;;;2.63;;
84729;SDS011;74950;56.832;41.398;2024-01-10T01:23:24;4.95;;;2.35;;
84729;SDS011;74950;56.832;41.398;2024-01-10T01:25:50;4.53;;;3.17;;
84729;SDS011;74950;56.832;41.398;2024-01-10T01:28:16;2.08;;;0.82;;
84729;SDS011;74950;56.832;41.398;2024-01-10T01:30:42;3.10;;;1.25;;
84729;SDS011;74950;56.832;41.398;2024-01-10T01:33:09;2.45;;;1.45;;
84729;SDS011;74950;56.832;41.398;2024-01-10T01:35:35;2.05;;;1.27;;
84729;SDS011;74950;56.832;41.398;2024-01-10T01:38:01;0.65;;;0.47;;
84729;SDS011;74950;56.832;41.398;2024-01-10T01:40:27;5.22;;;1.80;;
84729;SDS011;74950;56.832;41.398;2024-01-10T01:42:53;3.55;;;1.48;;
84729;SDS011;74950;56.832;41.398;2024-01-10T01:45:19;2.60;;;1.52;;
84729;SDS011;74950;56.832;41.398;2024-01-10T01:47:45;2.92;;;1.73;;
84729;SDS011;74950;56.832;41.398;2024-01-10T01:50:30;3.45;;;1.35;;
84729;SDS011;74950;56.832;41.398;2024-01-10T01:52:56;1.90;;;1.23;;
84729;SDS011;74950;56.832;41.398;2024-01-10T01:55:23;2.20;;;1.20;;
84729;SDS011;74950;56.832;41.398;2024-01-10T01:57:49;3.83;;;1.20;;
84729;SDS011;74950;56.832;41.398;2024-01-10T02:00:16;2.08;;;1.33;;
84729;SDS011;74950;56.832;41.398;2024-01-10T02:02:42;3.22;;;1.15;;
84729;SDS011;74950;56.832;41.398;2024-01-10T02:05:09;3.67;;;1.17;;
84729;SDS011;74950;56.832;41.398;2024-01-10T02:07:36;5.38;;;1.40;;
84729;SDS011;74950;56.832;41.398;2024-01-10T02:10:02;5.75;;;1.83;;
84729;SDS011;74950;56.832;41.398;2024-01-10T02:12:29;2.65;;;1.80;;
84729;SDS011;74950;56.832;41.398;2024-01-10T02:14:55;3.25;;;1.50;;
84729;SDS011;74950;56.832;41.398;2024-01-10T02:17:22;4.88;;;1.40;;
84729;SDS011;74950;56.832;41.398;2024-01-10T02:19:48;4.20;;;1.80;;
84729;SDS011;74950;56.832;41.398;2024-01-10T02:22:15;3.22;;;1.50;;
84729;SDS011;74950;56.832;41.398;2024-01-10T02:24:41;5.05;;;2.42;;
84729;SDS011;74950;56.832;41.398;2024-01-10T02:27:07;4.78;;;2.10;;
84729;SDS011;74950;56.832;41.398;2024-01-10T02:29:33;3.08;;;1.20;;
84729;SDS011;74950;56.832;41.398;2024-01-10T02:32:00;2.67;;;1.38;;
84729;SDS011;74950;56.832;41.398;2024-01-10T02:34:26;2.97;;;1.50;;
84729;SDS011;74950;56.832;41.398;2024-01-10T02:36:52;4.43;;;1.73;;
84729;SDS011;74950;56.832;41.398;2024-01-10T02:39:18;2.13;;;1.15;;
84729;SDS011;74950;56.832;41.398;2024-01-10T02:41:44;4.00;;;1.45;;
84729;SDS011;74950;56.832;41.398;2024-01-10T02:44:10;2.65;;;1.42;;
84729;SDS011;74950;56.832;41.398;2024-01-10T02:46:55;2.50;;;1.73;;
84729;SDS011;74950;56.832;41.398;2024-01-10T02:49:21;4.15;;;1.38;;
84729;SDS011;74950;56.832;41.398;2024-01-10T02:51:47;2.17;;;1.30;;
84729;SDS011;74950;56.832;41.398;2024-01-10T02:54:14;6.35;;;2.05;;
84729;SDS011;74950;56.832;41.398;2024-01-10T02:56:40;4.03;;;1.65;;
84729;SDS011;74950;56.832;41.398;2024-01-10T02:59:06;3.15;;;1.80;;
84729;SDS011;74950;56.832;41.398;2024-01-10T03:01:32;4.70;;;1.73;;
84729;SDS011;74950;56.832;41.398;2024-01-10T03:04:18;2.13;;;1.45;;
84729;SDS011;74950;56.832;41.398;2024-01-10T03:06:44;2.95;;;1.67;;
84729;SDS011;74950;56.832;41.398;2024-01-10T03:09:11;2.83;;;1.40;;
84729;SDS011;74950;56.832;41.398;2024-01-10T03:11:55;2.63;;;1.65;;
84729;SDS011;74950;56.832;41.398;2024-01-10T03:14:22;2.42;;;1.85;;
84729;SDS011;74950;56.832;41.398;2024-01-10T03:16:48;6.47;;;2.10;;
84729;SDS011;74950;56.832;41.398;2024-01-10T03:19:14;3.63;;;1.10;;
84729;SDS011;74950;56.832;41.398;2024-01-10T03:21:40;3.92;;;1.73;;
84729;SDS011;74950;56.832;41.398;2024-01-10T03:24:07;5.53;;;2.40;;
84729;SDS011;74950;56.832;41.398;2024-01-10T03:26:33;6.47;;;2.25;;
84729;SDS011;74950;56.832;41.398;2024-01-10T03:28:59;3.75;;;2.00;;
84729;SDS011;74950;56.832;41.398;2024-01-10T03:31:27;4.43;;;2.60;;
84729;SDS011;74950;56.832;41.398;2024-01-10T03:33:54;4.93;;;1.90;;
84729;SDS011;74950;56.832;41.398;2024-01-10T03:36:20;3.38;;;2.55;;
84729;SDS011;74950;56.832;41.398;2024-01-10T03:38:46;5.47;;;2.58;;
84729;SDS011;74950;56.832;41.398;2024-01-10T03:41:12;7.70;;;3.10;;
84729;SDS011;74950;56.832;41.398;2024-01-10T03:43:39;8.50;;;3.42;;
84729;SDS011;74950;56.832;41.398;2024-01-10T03:46:05;8.02;;;3.53;;
84729;SDS011;74950;56.832;41.398;2024-01-10T03:48:32;4.43;;;2.70;;
84729;SDS011;74950;56.832;41.398;2024-01-10T03:50:58;8.35;;;3.65;;
84729;SDS011;74950;56.832;41.398;2024-01-10T03:53:24;5.70;;;2.72;;
84729;SDS011;74950;56.832;41.398;2024-01-10T03:55:50;5.20;;;2.60;;
84729;SDS011;74950;56.832;41.398;2024-01-10T03:58:16;3.65;;;2.50;;
84729;SDS011;74950;56.832;41.398;2024-01-10T04:00:42;4.28;;;2.33;;
84729;SDS011;74950;56.832;41.398;2024-01-10T04:03:08;5.20;;;2.40;;
84729;SDS011;74950;56.832;41.398;2024-01-10T04:05:34;6.32;;;2.58;;
84729;SDS011;74950;56.832;41.398;2024-01-10T04:08:00;2.45;;;2.08;;
84729;SDS011;74950;56.832;41.398;2024-01-10T04:10:27;5.03;;;3.30;;
84729;SDS011;74950;56.832;41.398;2024-01-10T04:12:53;6.32;;;2.33;;
84729;SDS011;74950;56.832;41.398;2024-01-10T04:15:19;3.00;;;1.83;;
84729;SDS011;74950;56.832;41.398;2024-01-10T04:18:03;3.70;;;1.73;;
84729;SDS011;74950;56.832;41.398;2024-01-10T04:20:30;1.88;;;1.60;;
84729;SDS011;74950;56.832;41.398;2024-01-10T04:22:56;6.05;;;1.95;;
84729;SDS011;74950;56.832;41.398;2024-01-10T04:25:22;2.05;;;1.23;;
84729;SDS011;74950;56.832;41.398;2024-01-10T04:27:48;6.03;;;2.03;;
84729;SDS011;74950;56.832;41.398;2024-01-10T04:30:16;2.03;;;1.52;;
84729;SDS011;74950;56.832;41.398;2024-01-10T04:32:42;2.45;;;1.50;;
84729;SDS011;74950;56.832;41.398;2024-01-10T04:35:08;4.22;;;2.15;;
84729;SDS011;74950;56.832;41.398;2024-01-10T04:37:34;4.18;;;1.80;;
84729;SDS011;74950;56.832;41.398;2024-01-10T04:40:00;1.77;;;1.35;;
84729;SDS011;74950;56.832;41.398;2024-01-10T04:42:26;4.60;;;1.92;;
84729;SDS011;74950;56.832;41.398;2024-01-10T04:44:52;5.90;;;2.03;;
84729;SDS011;74950;56.832;41.398;2024-01-10T04:47:18;2.47;;;2.22;;
84729;SDS011;74950;56.832;41.398;2024-01-10T04:49:45;3.72;;;2.10;;
84729;SDS011;74950;56.832;41.398;2024-01-10T04:52:11;3.08;;;2.13;;
84729;SDS011;74950;56.832;41.398;2024-01-10T04:54:38;8.45;;;5.20;;
84729;SDS011;74950;56.832;41.398;2024-01-10T04:57:04;6.95;;;3.60;;
84729;SDS011;74950;56.832;41.398;2024-01-10T04:59:30;3.22;;;1.42;;
84729;SDS011;74950;56.832;41.398;2024-01-10T05:01:56;3.92;;;1.65;;
84729;SDS011;74950;56.832;41.398;2024-01-10T05:04:23;2.00;;;1.50;;
84729;SDS011;74950;56.832;41.398;2024-01-10T05:06:49;3.85;;;2.22;;
84729;SDS011;74950;56.832;41.398;2024-01-10T05:09:15;5.13;;;2.13;;
84729;SDS011;74950;56.832;41.398;2024-01-10T05:11:42;6.47;;;2.90;;
84729;SDS011;74950;56.832;41.398;2024-01-10T05:14:08;4.68;;;2.28;;
84729;SDS011;74950;56.832;41.398;2024-01-10T05:16:35;4.03;;;2.28;;
84729;SDS011;74950;56.832;41.398;2024-01-10T05:19:01;2.85;;;2.28;;
84729;SDS011;74950;56.832;41.398;2024-01-10T05:21:31;5.60;;;2.05;;
84729;SDS011;74950;56.832;41.398;2024-01-10T05:23:57;3.80;;;1.50;;
84729;SDS011;74950;56.832;41.398;2024-01-10T05:26:23;3.08;;;1.25;;
84729;SDS011;74950;56.832;41.398;2024-01-10T05:28:50;4.20;;;2.05;;
84729;SDS011;74950;56.832;41.398;2024-01-10T05:31:16;5.72;;;1.75;;
84729;SDS011;74950;56.832;41.398;2024-01-10T05:33:45;3.42;;;1.27;;
84729;SDS011;74950;56.832;41.398;2024-01-10T05:36:11;6.82;;;2.53;;
84729;SDS011;74950;56.832;41.398;2024-01-10T05:38:37;8.43;;;3.78;;
84729;SDS011;74950;56.832;41.398;2024-01-10T05:41:03;4.50;;;1.60;;
84729;SDS011;74950;56.832;41.398;2024-01-10T05:43:48;5.97;;;2.08;;
84729;SDS011;74950;56.832;41.398;2024-01-10T05:46:14;2.85;;;1.70;;
84729;SDS011;74950;56.832;41.398;2024-01-10T05:48:42;4.20;;;1.90;;
84729;SDS011;74950;56.832;41.398;2024-01-10T05:51:08;2.08;;;1.08;;
84729;SDS011;74950;56.832;41.398;2024-01-10T05:53:34;4.72;;;2.28;;
84729;SDS011;74950;56.832;41.398;2024-01-10T05:56:01;4.05;;;2.45;;
84729;SDS011;74950;56.832;41.398;2024-01-10T05:58:28;2.78;;;1.60;;
84729;SDS011;74950;56.832;41.398;2024-01-10T06:00:54;5.82;;;2.00;;
84729;SDS011;74950;56.832;41.398;2024-01-10T06:03:20;2.25;;;1.30;;
84729;SDS011;74950;56.832;41.398;2024-01-10T06:05:46;5.05;;;1.95;;
84729;SDS011;74950;56.832;41.398;2024-01-10T06:08:13;2.25;;;1.30;;
84729;SDS011;74950;56.832;41.398;2024-01-10T06:10:40;2.03;;;1.08;;
84729;SDS011;74950;56.832;41.398;2024-01-10T06:13:06;6.80;;;2.65;;
84729;SDS011;74950;56.832;41.398;2024-01-10T06:15:33;4.55;;;1.45;;
84729;SDS011;74950;56.832;41.398;2024-01-10T06:17:59;2.92;;;1.65;;
84729;SDS011;74950;56.832;41.398;2024-01-10T06:20:27;2.90;;;2.03;;
84729;SDS011;74950;56.832;41.398;2024-01-10T06:22:53;7.03;;;2.50;;
84729;SDS011;74950;56.832;41.398;2024-01-10T06:25:20;9.55;;;2.72;;
84729;SDS011;74950;56.832;41.398;2024-01-10T06:27:46;3.88;;;2.00;;
84729;SDS011;74950;56.832;41.398;2024-01-10T06:30:31;3.95;;;2.13;;
84729;SDS011;74950;56.832;41.398;2024-01-10T06:32:58;5.10;;;2.42;;
84729;SDS011;74950;56.832;41.398;2024-01-10T06:35:25;5.05;;;2.28;;
84729;SDS011;74950;56.832;41.398;2024-01-10T06:38:09;3.42;;;2.45;;
84729;SDS011;74950;56.832;41.398;2024-01-10T06:40:38;12.00;;;2.60;;
84729;SDS011;74950;56.832;41.398;2024-01-10T06:43:25;5.20;;;2.17;;
84729;SDS011;74950;56.832;41.398;2024-01-10T06:45:51;2.97;;;2.60;;
84729;SDS011;74950;56.832;41.398;2024-01-10T06:48:18;8.05;;;3.80;;
84729;SDS011;74950;56.832;41.398;2024-01-10T06:50:46;5.55;;;2.47;;
84729;SDS011;74950;56.832;41.398;2024-01-10T06:53:12;5.95;;;2.20;;
84729;SDS011;74950;56.832;41.398;2024-01-10T06:55:39;1.30;;;1.23;;
84729;SDS011;74950;56.832;41.398;2024-01-10T06:58:05;5.85;;;2.53;;
84729;SDS011;74950;56.832;41.398;2024-01-10T07:00:32;4.55;;;2.10;;
84729;SDS011;74950;56.832;41.398;2024-01-10T07:03:00;7.15;;;2.30;;
84729;SDS011;74950;56.832;41.398;2024-01-10T07:05:28;1.75;;;0.63;;
84729;SDS011;74950;56.832;41.398;2024-01-10T07:07:55;3.20;;;1.95;;
84729;SDS011;74950;56.832;41.398;2024-01-10T07:10:39;9.07;;;1.90;;
84729;SDS011;74950;56.832;41.398;2024-01-10T07:13:06;2.97;;;1.80;;
84729;SDS011;74950;56.832;41.398;2024-01-10T07:15:32;0.77;;;0.77;;
84729;SDS011;74950;56.832;41.398;2024-01-10T07:17:59;3.67;;;1.38;;
84729;SDS011;74950;56.832;41.398;2024-01-10T07:20:25;3.08;;;1.83;;
84729;SDS011;74950;56.832;41.398;2024-01-10T07:22:51;10.52;;;3.08;;
84729;SDS011;74950;56.832;41.398;2024-01-10T07:25:17;2.47;;;1.88;;
84729;SDS011;74950;56.832;41.398;2024-01-10T07:27:44;6.35;;;2.55;;
84729;SDS011;74950;56.832;41.398;2024-01-10T07:30:10;5.68;;;2.10;;
84729;SDS011;74950;56.832;41.398;2024-01-10T07:32:43;8.07;;;3.38;;
84729;SDS011;74950;56.832;41.398;2024-01-10T07:35:12;3.88;;;2.28;;
84729;SDS011;74950;56.832;41.398;2024-01-10T07:37:39;3.50;;;1.85;;
84729;SDS011;74950;56.832;41.398;2024-01-10T07:40:07;0.90;;;0.80;;
84729;SDS011;74950;56.832;41.398;2024-01-10T07:42:34;4.03;;;1.65;;
84729;SDS011;74950;56.832;41.398;2024-01-10T07:45:01;2.63;;;1.20;;
84729;SDS011;74950;56.832;41.398;2024-01-10T07:49:57;1.80;;;1.60;;
84729;SDS011;74950;56.832;41.398;2024-01-10T07:52:25;2.97;;;1.58;;
84729;SDS011;74950;56.832;41.398;2024-01-10T07:54:52;1.75;;;0.80;;
84729;SDS011;74950;56.832;41.398;2024-01-10T07:57:18;3.30;;;1.85;;
84729;SDS011;74950;56.832;41.398;2024-01-10T07:59:44;5.35;;;3.00;;
84729;SDS011;74950;56.832;41.398;2024-01-10T08:02:11;1.45;;;0.93;;
84729;SDS011;74950;56.832;41.398;2024-01-10T08:04:37;4.88;;;2.00;;
84729;SDS011;74950;56.832;41.398;2024-01-10T08:07:03;3.30;;;2.22;;
84729;SDS011;74950;56.832;41.398;2024-01-10T08:09:29;2.08;;;1.33;;
84729;SDS011;74950;56.832;41.398;2024-01-10T08:11:57;1.17;;;1.05;;
84729;SDS011;74950;56.832;41.398;2024-01-10T08:14:23;5.43;;;2.72;;
84729;SDS011;74950;56.832;41.398;2024-01-10T08:16:49;6.97;;;2.42;;
84729;SDS011;74950;56.832;41.398;2024-01-10T08:19:18;4.20;;;1.90;;
84729;SDS011;74950;56.832;41.398;2024-01-10T08:21:46;5.82;;;2.50;;
84729;SDS011;74950;56.832;41.398;2024-01-10T08:24:13;5.43;;;1.95;;
84729;SDS011;74950;56.832;41.398;2024-01-10T08:26:40;2.90;;;1.25;;
84729;SDS011;74950;56.832;41.398;2024-01-10T08:29:07;2.88;;;2.13;;
84729;SDS011;74950;56.832;41.398;2024-01-10T08:31:33;4.88;;;2.58;;
84729;SDS011;74950;56.832;41.398;2024-01-10T08:34:00;4.65;;;2.22;;
84729;SDS011;74950;56.832;41.398;2024-01-10T08:36:27;6.82;;;2.67;;
84729;SDS011;74950;56.832;41.398;2024-01-10T08:38:53;9.98;;;2.72;;
84729;SDS011;74950;56.832;41.398;2024-01-10T08:41:19;5.57;;;3.10;;
84729;SDS011;74950;56.832;41.398;2024-01-10T08:43:46;7.60;;;3.20;;
84729;SDS011;74950;56.832;41.398;2024-01-10T08:46:13;5.03;;;2.92;;
84729;SDS011;74950;56.832;41.398;2024-01-10T08:48:39;3.67;;;2.70;;
84729;SDS011;74950;56.832;41.398;2024-01-10T08:51:07;4.72;;;3.40;;
84729;SDS011;74950;56.832;41.398;2024-01-10T08:53:38;4.90;;;3.13;;
84729;SDS011;74950;56.832;41.398;2024-01-10T08:56:05;6.95;;;3.30;;
84729;SDS011;74950;56.832;41.398;2024-01-10T08:58:31;5.60;;;3.10;;
84729;SDS011;74950;56.832;41.398;2024-01-10T09:00:58;3.78;;;1.88;;
84729;SDS011;74950;56.832;41.398;2024-01-10T09:03:24;3.75;;;2.33;;
84729;SDS011;74950;56.832;41.398;2024-01-10T09:05:50;4.38;;;2.30;;
84729;SDS011;74950;56.832;41.398;2024-01-10T09:08:16;6.20;;;2.58;;
84729;SDS011;74950;56.832;41.398;2024-01-10T09:10:42;9.15;;;3.88;;
84729;SDS011;74950;56.832;41.398;2024-01-10T09:13:09;10.60;;;4.43;;
84729;SDS011;74950;56.832;41.398;2024-01-10T09:15:36;9.20;;;4.95;;
84729;SDS011;74950;56.832;41.398;2024-01-10T09:18:03;14.80;;;4.35;;
84729;SDS011;74950;56.832;41.398;2024-01-10T09:20:29;13.88;;;5.47;;
84729;SDS011;74950;56.832;41.398;2024-01-10T09:22:55;8.80;;;4.68;;
84729;SDS011;74950;56.832;41.398;2024-01-10T09:25:22;11.90;;;5.07;;
84729;SDS011;74950;56.832;41.398;2024-01-10T09:27:48;9.25;;;4.90;;
84729;SDS011;74950;56.832;41.398;2024-01-10T09:30:15;11.55;;;5.45;;
84729;SDS011;74950;56.832;41.398;2024-01-10T09:32:42;9.90;;;5.63;;
84729;SDS011;74950;56.832;41.398;2024-01-10T09:35:08;9.30;;;3.92;;
84729;SDS011;74950;56.832;41.398;2024-01-10T09:37:34;6.30;;;2.90;;
84729;SDS011;74950;56.832;41.398;2024-01-10T09:40:02;6.35;;;2.70;;
84729;SDS011;74950;56.832;41.398;2024-01-10T09:42:29;6.18;;;3.63;;
84729;SDS011;74950;56.832;41.398;2024-01-10T09:44:57;7.82;;;3.60;;
84729;SDS011;74950;56.832;41.398;2024-01-10T09:47:23;5.70;;;2.53;;
84729;SDS011;74950;56.832;41.398;2024-01-10T09:49:51;4.78;;;3.08;;
84729;SDS011;74950;56.832;41.398;2024-01-10T09:52:49;7.82;;;3.30;;
84729;SDS011;74950;56.832;41.398;2024-01-10T09:55:17;8.27;;;3.00;;
84729;SDS011;74950;56.832;41.398;2024-01-10T09:57:46;6.30;;;1.77;;
84729;SDS011;74950;56.832;41.398;2024-01-10T10:00:13;3.83;;;2.30;;
84729;SDS011;74950;56.832;41.398;2024-01-10T10:02:42;7.80;;;2.28;;
84729;SDS011;74950;56.832;41.398;2024-01-10T10:05:15;4.63;;;2.72;;
84729;SDS011;74950;56.832;41.398;2024-01-10T10:07:45;3.28;;;2.30;;
84729;SDS011;74950;56.832;41.398;2024-01-10T10:10:12;4.35;;;1.60;;
84729;SDS011;74950;56.832;41.398;2024-01-10T10:12:47;5.30;;;2.88;;
84729;SDS011;74950;56.832;41.398;2024-01-10T10:15:15;9.48;;;3.00;;
84729;SDS011;74950;56.832;41.398;2024-01-10T10:17:46;7.40;;;3.10;;
84729;SDS011;74950;56.832;41.398;2024-01-10T10:20:21;2.65;;;1.98;;
84729;SDS011;74950;56.832;41.398;2024-01-10T10:23:09;6.07;;;3.10;;
84729;SDS011;74950;56.832;41.398;2024-01-10T10:25:45;3.28;;;1.65;;
84729;SDS011;74950;56.832;41.398;2024-01-10T10:28:11;6.78;;;3.28;;
84729;SDS011;74950;56.832;41.398;2024-01-10T10:30:38;3.97;;;1.52;;
84729;SDS011;74950;56.832;41.398;2024-01-10T10:33:05;1.85;;;1.75;;
84729;SDS011;74950;56.832;41.398;2024-01-10T10:35:33;4.72;;;2.75;;
84729;SDS011;74950;56.832;41.398;2024-01-10T10:38:00;3.67;;;1.80;;
84729;SDS011;74950;56.832;41.398;2024-01-10T10:40:26;6.28;;;2.35;;
84729;SDS011;74950;56.832;41.398;2024-01-10T10:42:55;5.65;;;3.20;;
84729;SDS011;74950;56.832;41.398;2024-01-10T10:45:22;4.07;;;1.65;;
84729;SDS011;74950;56.832;41.398;2024-01-10T10:47:56;8.73;;;4.00;;
84729;SDS011;74950;56.832;41.398;2024-01-10T10:50:23;5.97;;;2.25;;
84729;SDS011;74950;56.832;41.398;2024-01-10T10:52:50;4.68;;;2.05;;
84729;SDS011;74950;56.832;41.398;2024-01-10T10:55:20;8.23;;;2.72;;
84729;SDS011;74950;56.832;41.398;2024-01-10T10:57:47;5.30;;;2.85;;
84729;SDS011;74950;56.832;41.398;2024-01-10T11:00:14;8.25;;;4.07;;
84729;SDS011;74950;56.832;41.398;2024-01-10T11:02:43;8.02;;;4.03;;
84729;SDS011;74950;56.832;41.398;2024-01-10T11:05:10;5.15;;;3.20;;
84729;SDS011;74950;56.832;41.398;2024-01-10T11:07:37;7.15;;;2.58;;
84729;SDS011;74950;56.832;41.398;2024-01-10T11:10:06;9.45;;;4.07;;
84729;SDS011;74950;56.832;41.398;2024-01-10T11:21:21;6.93;;;3.10;;
84729;SDS011;74950;56.832;41.398;2024-01-10T11:23:54;6.10;;;2.58;;
84729;SDS011;74950;56.832;41.398;2024-01-10T11:26:23;4.18;;;1.77;;
84729;SDS011;74950;56.832;41.398;2024-01-10T11:28:50;2.83;;;1.55;;
84729;SDS011;74950;56.832;41.398;2024-01-10T11:31:18;5.13;;;3.15;;
84729;SDS011;74950;56.832;41.398;2024-01-10T11:33:53;6.03;;;3.28;;
84729;SDS011;74950;56.832;41.398;2024-01-10T11:36:20;4.07;;;2.47;;
84729;SDS011;74950;56.832;41.398;2024-01-10T11:41:27;6.57;;;3.17;;
84729;SDS011;74950;56.832;41.398;2024-01-10T11:46:53;10.10;;;4.75;;
84729;SDS011;74950;56.832;41.398;2024-01-10T11:49:21;11.68;;;4.35;;
84729;SDS011;74950;56.832;41.398;2024-01-10T11:51:48;11.27;;;5.32;;
84729;SDS011;74950;56.832;41.398;2024-01-10T11:54:50;15.20;;;5.10;;
84729;SDS011;74950;56.832;41.398;2024-01-10T11:57:12;13.73;;;5.35;;
84729;SDS011;74950;56.832;41.398;2024-01-10T11:59:52;9.90;;;4.90;;
84729;SDS011;74950;56.832;41.398;2024-01-10T12:02:19;15.68;;;5.95;;
84729;SDS011;74950;56.832;41.398;2024-01-10T12:04:46;12.70;;;5.25;;
84729;SDS011;74950;56.832;41.398;2024-01-10T12:07:12;16.13;;;6.32;;
84729;SDS011;74950;56.832;41.398;2024-01-10T12:09:39;13.75;;;6.13;;
84729;SDS011;74950;56.832;41.398;2024-01-10T12:12:05;13.07;;;4.97;;
84729;SDS011;74950;56.832;41.398;2024-01-10T12:14:32;8.55;;;3.80;;
84729;SDS011;74950;56.832;41.398;2024-01-10T12:16:59;16.95;;;5.32;;
84729;SDS011;74950;56.832;41.398;2024-01-10T12:19:45;9.23;;;4.63;;
84729;SDS011;74950;56.832;41.398;2024-01-10T12:22:13;4.78;;;2.40;;
84729;SDS011;74950;56.832;41.398;2024-01-10T12:24:47;6.78;;;2.28;;
84729;SDS011;74950;56.832;41.398;2024-01-10T12:27:16;7.07;;;2.50;;
84729;SDS011;74950;56.832;41.398;2024-01-10T12:29:43;4.90;;;1.92;;
84729;SDS011;74950;56.832;41.398;2024-01-10T12:32:09;3.13;;;2.13;;
84729;SDS011;74950;56.832;41.398;2024-01-10T12:34:38;4.75;;;1.98;;
84729;SDS011;74950;56.832;41.398;2024-01-10T12:37:05;3.42;;;2.47;;
84729;SDS011;74950;56.832;41.398;2024-01-10T12:39:32;5.60;;;2.95;;
84729;SDS011;74950;56.832;41.398;2024-01-10T12:41:58;6.80;;;2.38;;
84729;SDS011;74950;56.832;41.398;2024-01-10T12:44:31;6.03;;;2.58;;
84729;SDS011;74950;56.832;41.398;2024-01-10T12:47:22;8.43;;;3.88;;
84729;SDS011;74950;56.832;41.398;2024-01-10T12:49:49;14.80;;;5.07;;
84729;SDS011;74950;56.832;41.398;2024-01-10T12:52:16;10.95;;;4.47;;
84729;SDS011;74950;56.832;41.398;2024-01-10T12:55:00;7.15;;;3.30;;
84729;SDS011;74950;56.832;41.398;2024-01-10T12:57:27;7.50;;;3.20;;
84729;SDS011;74950;56.832;41.398;2024-01-10T12:59:53;11.32;;;4.53;;
84729;SDS011;74950;56.832;41.398;2024-01-10T13:02:19;7.32;;;4.00;;
84729;SDS011;74950;56.832;41.398;2024-01-10T13:04:45;18.42;;;5.43;;
84729;SDS011;74950;56.832;41.398;2024-01-10T13:07:11;13.00;;;5.80;;
84729;SDS011;74950;56.832;41.398;2024-01-10T13:09:37;17.33;;;6.90;;
84729;SDS011;74950;56.832;41.398;2024-01-10T13:12:04;15.80;;;6.25;;
84729;SDS011;74950;56.832;41.398;2024-01-10T13:14:30;11.73;;;5.20;;
84729;SDS011;74950;56.832;41.398;2024-01-10T13:16:58;13.63;;;5.20;;
84729;SDS011;74950;56.832;41.398;2024-01-10T13:19:24;12.18;;;5.15;;
84729;SDS011;74950;56.832;41.398;2024-01-10T13:21:51;14.00;;;5.43;;
84729;SDS011;74950;56.832;41.398;2024-01-10T13:24:18;13.00;;;5.47;;
84729;SDS011;74950;56.832;41.398;2024-01-10T13:26:45;10.27;;;4.53;;
84729;SDS011;74950;56.832;41.398;2024-01-10T13:29:11;11.40;;;3.90;;
84729;SDS011;74950;56.832;41.398;2024-01-10T13:31:39;9.40;;;4.00;;
84729;SDS011;74950;56.832;41.398;2024-01-10T13:34:05;10.32;;;4.43;;
84729;SDS011;74950;56.832;41.398;2024-01-10T13:36:32;10.00;;;3.35;;
84729;SDS011;74950;56.832;41.398;2024-01-10T13:38:58;11.27;;;3.78;;
84729;SDS011;74950;56.832;41.398;2024-01-10T13:41:25;6.65;;;3.40;;
84729;SDS011;74950;56.832;41.398;2024-01-10T13:43:51;5.68;;;2.63;;
84729;SDS011;74950;56.832;41.398;2024-01-10T13:46:17;6.03;;;2.35;;
84729;SDS011;74950;56.832;41.398;2024-01-10T13:48:43;4.70;;;2.28;;
84729;SDS011;74950;56.832;41.398;2024-01-10T13:51:09;6.95;;;2.67;;
84729;SDS011;74950;56.832;41.398;2024-01-10T13:53:35;4.93;;;2.05;;
84729;SDS011;74950;56.832;41.398;2024-01-10T13:56:02;4.40;;;2.45;;
84729;SDS011;74950;56.832;41.398;2024-01-10T13:58:28;4.05;;;2.22;;
84729;SDS011;74950;56.832;41.398;2024-01-10T14:01:13;4.43;;;2.03;;
84729;SDS011;74950;56.832;41.398;2024-01-10T14:03:39;2.53;;;2.03;;
84729;SDS011;74950;56.832;41.398;2024-01-10T14:06:06;2.10;;;1.73;;
84729;SDS011;74950;56.832;41.398;2024-01-10T14:08:32;6.45;;;3.13;;
84729;SDS011;74950;56.832;41.398;2024-01-10T14:10:59;6.75;;;2.58;;
84729;SDS011;74950;56.832;41.398;2024-01-10T14:13:26;5.93;;;2.53;;
84729;SDS011;74950;56.832;41.398;2024-01-10T14:15:52;6.70;;;3.63;;
84729;SDS011;74950;56.832;41.398;2024-01-10T14:18:18;8.63;;;3.55;;
84729;SDS011;74950;56.832;41.398;2024-01-10T14:20:44;3.88;;;2.78;;
84729;SDS011;74950;56.832;41.398;2024-01-10T14:23:10;6.20;;;2.88;;
84729;SDS011;74950;56.832;41.398;2024-01-10T14:25:36;5.95;;;2.17;;
84729;SDS011;74950;56.832;41.398;2024-01-10T14:28:03;7.63;;;3.05;;
84729;SDS011;74950;56.832;41.398;2024-01-10T14:30:29;10.07;;;2.70;;
84729;SDS011;74950;56.832;41.398;2024-01-10T14:32:55;6.88;;;2.80;;
84729;SDS011;74950;56.832;41.398;2024-01-10T14:35:21;6.90;;;2.60;;
84729;SDS011;74950;56.832;41.398;2024-01-10T14:37:47;7.05;;;2.88;;
84729;SDS011;74950;56.832;41.398;2024-01-10T14:40:13;6.68;;;2.50;;
84729;SDS011;74950;56.832;41.398;2024-01-10T14:42:39;6.20;;;2.55;;
84729;SDS011;74950;56.832;41.398;2024-01-10T14:45:06;5.78;;;2.75;;
84729;SDS011;74950;56.832;41.398;2024-01-10T14:47:32;5.10;;;2.42;;
84729;SDS011;74950;56.832;41.398;2024-01-10T14:49:58;7.05;;;2.80;;
84729;SDS011;74950;56.832;41.398;2024-01-10T14:52:25;5.47;;;2.78;;
84729;SDS011;74950;56.832;41.398;2024-01-10T14:54:52;3.78;;;2.42;;